sensor_id;sensor_type;location;lat;lon;timestamp;temperature;humidity
33994;DHT22;20673;48.980;8.138;2023-02-15T00:01:10;1.50;99.90
33994;DHT22;20673;48.980;8.138;2023-02-15T00:03:37;1.50;99.90
33994;DHT22;20673;48.980;8.138;2023-02-15T00:06:04;1.50;99.90
33994;DHT22;20673;48.980;8.138;2023-02-15T00:08:30;1.50;99.90
33994;DHT22;20673;48.980;8.138;2023-02-15T00:11:03;1.50;99.90
33994;DHT22;20673;48.980;8.138;2023-02-15T00:13:31;1.50;99.90
33994;DHT22;20673;48.980;8.138;2023-02-15T00:16:05;1.50;99.90
33994;DHT22;20673;48.980;8.138;2023-02-15T00:18:32;1.50;99.90
33994;DHT22;20673;48.980;8.138;2023-02-15T00:21:02;1.60;99.90
33994;DHT22;20673;48.980;8.138;2023-02-15T00:23:31;1.50;99.90
33994;DHT22;20673;48.980;8.138;2023-02-15T00:26:09;1.50;99.90
33994;DHT22;20673;48.980;8.138;2023-02-15T00:28:33;1.50;99.90
33994;DHT22;20673;48.980;8.138;2023-02-15T00:31:07;1.50;99.90
33994;DHT22;20673;48.980;8.138;2023-02-15T00:33:32;1.50;99.90
33994;DHT22;20673;48.980;8.138;2023-02-15T00:35:59;1.50;99.90
33994;DHT22;20673;48.980;8.138;2023-02-15T00:38:29;1.50;99.90
33994;DHT22;20673;48.980;8.138;2023-02-15T00:40:56;1.50;99.90
33994;DHT22;20673;48.980;8.138;2023-02-15T00:43:23;1.40;99.90
33994;DHT22;20673;48.980;8.138;2023-02-15T00:45:50;1.40;99.90
33994;DHT22;20673;48.980;8.138;2023-02-15T00:48:16;1.40;99.90
33994;DHT22;20673;48.980;8.138;2023-02-15T00:50:46;1.40;99.90
33994;DHT22;20673;48.980;8.138;2023-02-15T00:53:14;1.40;99.90
33994;DHT22;20673;48.980;8.138;2023-02-15T00:55:40;1.40;99.90
33994;DHT22;20673;48.980;8.138;2023-02-15T00:58:06;1.40;99.90
33994;DHT22;20673;48.980;8.138;2023-02-15T01:00:33;1.40;99.90
33994;DHT22;20673;48.980;8.138;2023-02-15T01:02:59;1.50;99.90
33994;DHT22;20673;48.980;8.138;2023-02-15T01:05:25;1.50;99.90
33994;DHT22;20673;48.980;8.138;2023-02-15T01:07:51;1.40;99.90
33994;DHT22;20673;48.980;8.138;2023-02-15T01:10:17;1.40;99.90
33994;DHT22;20673;48.980;8.138;2023-02-15T01:12:43;1.40;99.90
33994;DHT22;20673;48.980;8.138;2023-02-15T01:15:09;1.40;99.90
33994;DHT22;20673;48.980;8.138;2023-02-15T01:17:35;1.40;99.90
33994;DHT22;20673;48.980;8.138;2023-02-15T01:20:01;1.40;99.90
33994;DHT22;20673;48.980;8.138;2023-02-15T01:22:28;1.40;99.90
33994;DHT22;20673;48.980;8.138;2023-02-15T01:24:54;1.30;99.90
33994;DHT22;20673;48.980;8.138;2023-02-15T01:27:20;1.30;99.90
33994;DHT22;20673;48.980;8.138;2023-02-15T01:29:46;1.30;99.90
33994;DHT22;20673;48.980;8.138;2023-02-15T01:32:12;1.30;99.90
33994;DHT22;20673;48.980;8.138;2023-02-15T01:34:38;1.20;99.90
33994;DHT22;20673;48.980;8.138;2023-02-15T01:37:04;1.30;99.90
33994;DHT22;20673;48.980;8.138;2023-02-15T01:39:30;1.30;99.90
33994;DHT22;20673;48.980;8.138;2023-02-15T01:41:56;1.40;99.90
33994;DHT22;20673;48.980;8.138;2023-02-15T01:47:32;1.30;99.90
33994;DHT22;20673;48.980;8.138;2023-02-15T01:52:43;1.30;99.90
33994;DHT22;20673;48.980;8.138;2023-02-15T01:55:10;1.30;99.90
33994;DHT22;20673;48.980;8.138;2023-02-15T01:57:38;1.30;99.90
33994;DHT22;20673;48.980;8.138;2023-02-15T02:00:05;1.30;99.90
33994;DHT22;20673;48.980;8.138;2023-02-15T02:02:32;1.30;99.90
33994;DHT22;20673;48.980;8.138;2023-02-15T02:05:00;1.30;99.90
33994;DHT22;20673;48.980;8.138;2023-02-15T02:07:43;1.30;99.90
33994;DHT22;20673;48.980;8.138;2023-02-15T02:10:06;1.30;99.90
33994;DHT22;20673;48.980;8.138;2023-02-15T02:12:35;1.30;99.90
33994;DHT22;20673;48.980;8.138;2023-02-15T02:15:04;1.30;99.90
33994;DHT22;20673;48.980;8.138;2023-02-15T02:42:36;1.20;99.90
33994;DHT22;20673;48.980;8.138;2023-02-15T02:45:05;1.20;99.90
33994;DHT22;20673;48.980;8.138;2023-02-15T02:47:43;1.20;99.90
33994;DHT22;20673;48.980;8.138;2023-02-15T02:50:15;1.20;99.90
33994;DHT22;20673;48.980;8.138;2023-02-15T02:52:43;1.10;99.90
33994;DHT22;20673;48.980;8.138;2023-02-15T02:55:31;1.10;99.90
33994;DHT22;20673;48.980;8.138;2023-02-15T03:00:57;1.20;99.90
33994;DHT22;20673;48.980;8.138;2023-02-15T03:03:37;1.20;99.90
33994;DHT22;20673;48.980;8.138;2023-02-15T03:06:07;1.20;99.90
33994;DHT22;20673;48.980;8.138;2023-02-15T03:08:37;1.20;99.90
33994;DHT22;20673;48.980;8.138;2023-02-15T03:11:05;1.20;99.90
33994;DHT22;20673;48.980;8.138;2023-02-15T03:13:31;1.10;99.90
33994;DHT22;20673;48.980;8.138;2023-02-15T03:15:58;1.20;99.90
33994;DHT22;20673;48.980;8.138;2023-02-15T03:18:46;1.10;99.90
33994;DHT22;20673;48.980;8.138;2023-02-15T03:21:16;1.10;99.90
33994;DHT22;20673;48.980;8.138;2023-02-15T03:23:44;1.10;99.90
33994;DHT22;20673;48.980;8.138;2023-02-15T03:26:10;1.10;99.90
33994;DHT22;20673;48.980;8.138;2023-02-15T03:28:38;1.10;99.90
33994;DHT22;20673;48.980;8.138;2023-02-15T03:31:06;1.10;99.90
33994;DHT22;20673;48.980;8.138;2023-02-15T03:33:35;1.10;99.90
33994;DHT22;20673;48.980;8.138;2023-02-15T03:38:36;1.10;99.90
33994;DHT22;20673;48.980;8.138;2023-02-15T03:41:08;1.10;99.90
33994;DHT22;20673;48.980;8.138;2023-02-15T03:43:40;1.10;99.90
33994;DHT22;20673;48.980;8.138;2023-02-15T03:46:21;1.10;99.90
33994;DHT22;20673;48.980;8.138;2023-02-15T03:49:36;1.10;99.90
33994;DHT22;20673;48.980;8.138;2023-02-15T03:51:33;1.00;99.90
33994;DHT22;20673;48.980;8.138;2023-02-15T03:56:41;1.00;99.90
33994;DHT22;20673;48.980;8.138;2023-02-15T03:59:05;1.00;99.90
33994;DHT22;20673;48.980;8.138;2023-02-15T04:02:04;1.10;99.90
33994;DHT22;20673;48.980;8.138;2023-02-15T04:07:02;1.00;99.90
33994;DHT22;20673;48.980;8.138;2023-02-15T04:09:28;1.00;99.90
33994;DHT22;20673;48.980;8.138;2023-02-15T04:12:13;1.10;99.90
33994;DHT22;20673;48.980;8.138;2023-02-15T04:14:39;1.10;99.90
33994;DHT22;20673;48.980;8.138;2023-02-15T04:17:23;1.10;99.90
33994;DHT22;20673;48.980;8.138;2023-02-15T04:19:49;1.10;99.90
33994;DHT22;20673;48.980;8.138;2023-02-15T04:22:33;1.00;99.90
33994;DHT22;20673;48.980;8.138;2023-02-15T04:25:17;1.00;99.90
33994;DHT22;20673;48.980;8.138;2023-02-15T04:27:44;1.00;99.90
33994;DHT22;20673;48.980;8.138;2023-02-15T04:30:16;1.00;99.90
33994;DHT22;20673;48.980;8.138;2023-02-15T04:32:44;1.00;99.90
33994;DHT22;20673;48.980;8.138;2023-02-15T04:35:10;1.00;99.90
33994;DHT22;20673;48.980;8.138;2023-02-15T04:37:37;1.00;99.90
33994;DHT22;20673;48.980;8.138;2023-02-15T04:40:04;1.00;99.90
33994;DHT22;20673;48.980;8.138;2023-02-15T04:42:31;1.00;99.90
33994;DHT22;20673;48.980;8.138;2023-02-15T04:44:57;1.10;99.90
33994;DHT22;20673;48.980;8.138;2023-02-15T04:47:23;1.10;99.90
33994;DHT22;20673;48.980;8.138;2023-02-15T04:49:49;1.10;99.90
33994;DHT22;20673;48.980;8.138;2023-02-15T04:52:15;1.00;99.90
33994;DHT22;20673;48.980;8.138;2023-02-15T04:54:43;1.00;99.90
33994;DHT22;20673;48.980;8.138;2023-02-15T04:57:09;1.00;99.90
33994;DHT22;20673;48.980;8.138;2023-02-15T04:59:35;1.00;99.90
33994;DHT22;20673;48.980;8.138;2023-02-15T05:02:01;1.00;99.90
33994;DHT22;20673;48.980;8.138;2023-02-15T05:04:27;1.00;99.90
33994;DHT22;20673;48.980;8.138;2023-02-15T05:06:53;1.00;99.90
33994;DHT22;20673;48.980;8.138;2023-02-15T05:09:19;1.00;99.90
33994;DHT22;20673;48.980;8.138;2023-02-15T05:11:45;0.90;99.90
33994;DHT22;20673;48.980;8.138;2023-02-15T05:14:11;0.90;99.90
33994;DHT22;20673;48.980;8.138;2023-02-15T05:16:37;1.00;99.90
33994;DHT22;20673;48.980;8.138;2023-02-15T05:19:03;0.90;99.90
33994;DHT22;20673;48.980;8.138;2023-02-15T05:21:29;0.90;99.90
33994;DHT22;20673;48.980;8.138;2023-02-15T05:23:56;1.00;99.90
33994;DHT22;20673;48.980;8.138;2023-02-15T05:26:23;1.00;99.90
33994;DHT22;20673;48.980;8.138;2023-02-15T05:29:08;1.00;99.90
33994;DHT22;20673;48.980;8.138;2023-02-15T05:31:34;1.00;99.90
33994;DHT22;20673;48.980;8.138;2023-02-15T05:34:01;1.10;99.90
33994;DHT22;20673;48.980;8.138;2023-02-15T05:36:27;1.00;99.90
33994;DHT22;20673;48.980;8.138;2023-02-15T05:38:54;1.00;99.90
33994;DHT22;20673;48.980;8.138;2023-02-15T05:41:20;0.90;99.90
33994;DHT22;20673;48.980;8.138;2023-02-15T05:43:46;0.90;99.90
33994;DHT22;20673;48.980;8.138;2023-02-15T05:46:12;0.90;99.90
33994;DHT22;20673;48.980;8.138;2023-02-15T05:48:38;1.00;99.90
33994;DHT22;20673;48.980;8.138;2023-02-15T05:51:05;1.00;99.90
33994;DHT22;20673;48.980;8.138;2023-02-15T05:53:33;1.00;99.90
33994;DHT22;20673;48.980;8.138;2023-02-15T05:56:02;1.00;99.90
33994;DHT22;20673;48.980;8.138;2023-02-15T05:58:29;1.00;99.90
33994;DHT22;20673;48.980;8.138;2023-02-15T06:00:57;1.00;99.90
33994;DHT22;20673;48.980;8.138;2023-02-15T06:03:23;1.00;99.90
33994;DHT22;20673;48.980;8.138;2023-02-15T06:05:51;0.90;99.90
33994;DHT22;20673;48.980;8.138;2023-02-15T06:08:18;1.00;99.90
33994;DHT22;20673;48.980;8.138;2023-02-15T06:10:46;1.00;99.90
33994;DHT22;20673;48.980;8.138;2023-02-15T06:13:12;1.00;99.90
33994;DHT22;20673;48.980;8.138;2023-02-15T06:15:38;1.00;99.90
33994;DHT22;20673;48.980;8.138;2023-02-15T06:18:04;0.90;99.90
33994;DHT22;20673;48.980;8.138;2023-02-15T06:20:30;0.90;99.90
33994;DHT22;20673;48.980;8.138;2023-02-15T06:22:56;0.90;99.90
33994;DHT22;20673;48.980;8.138;2023-02-15T06:25:22;0.90;99.90
33994;DHT22;20673;48.980;8.138;2023-02-15T06:27:50;0.90;99.90
33994;DHT22;20673;48.980;8.138;2023-02-15T06:30:16;0.90;99.90
33994;DHT22;20673;48.980;8.138;2023-02-15T06:32:42;0.90;99.90
33994;DHT22;20673;48.980;8.138;2023-02-15T06:35:08;0.90;99.90
33994;DHT22;20673;48.980;8.138;2023-02-15T06:37:34;0.90;99.90
33994;DHT22;20673;48.980;8.138;2023-02-15T06:40:00;0.90;99.90
33994;DHT22;20673;48.980;8.138;2023-02-15T06:42:26;0.90;99.90
33994;DHT22;20673;48.980;8.138;2023-02-15T06:44:52;0.80;99.90
33994;DHT22;20673;48.980;8.138;2023-02-15T06:47:18;0.90;99.90
33994;DHT22;20673;48.980;8.138;2023-02-15T06:49:43;0.90;99.90
33994;DHT22;20673;48.980;8.138;2023-02-15T06:52:09;0.90;99.90
33994;DHT22;20673;48.980;8.138;2023-02-15T06:54:35;0.90;99.90
33994;DHT22;20673;48.980;8.138;2023-02-15T06:57:01;0.90;99.90
33994;DHT22;20673;48.980;8.138;2023-02-15T06:59:27;0.90;99.90
33994;DHT22;20673;48.980;8.138;2023-02-15T07:01:53;0.90;99.90
33994;DHT22;20673;48.980;8.138;2023-02-15T07:04:19;0.90;99.90
33994;DHT22;20673;48.980;8.138;2023-02-15T07:06:45;1.00;99.90
33994;DHT22;20673;48.980;8.138;2023-02-15T07:09:11;1.00;99.90
33994;DHT22;20673;48.980;8.138;2023-02-15T07:11:38;1.00;99.90
33994;DHT22;20673;48.980;8.138;2023-02-15T07:14:22;1.00;99.90
33994;DHT22;20673;48.980;8.138;2023-02-15T07:16:48;1.00;99.90
33994;DHT22;20673;48.980;8.138;2023-02-15T07:19:14;1.00;99.90
33994;DHT22;20673;48.980;8.138;2023-02-15T07:21:40;1.00;99.90
33994;DHT22;20673;48.980;8.138;2023-02-15T07:24:06;0.90;99.90
33994;DHT22;20673;48.980;8.138;2023-02-15T07:26:33;1.00;99.90
33994;DHT22;20673;48.980;8.138;2023-02-15T07:28:58;1.00;99.90
33994;DHT22;20673;48.980;8.138;2023-02-15T07:31:25;0.90;99.90
33994;DHT22;20673;48.980;8.138;2023-02-15T07:33:50;0.90;99.90
33994;DHT22;20673;48.980;8.138;2023-02-15T07:36:16;0.90;99.90
33994;DHT22;20673;48.980;8.138;2023-02-15T07:38:42;0.90;99.90
33994;DHT22;20673;48.980;8.138;2023-02-15T07:41:10;0.90;99.90
33994;DHT22;20673;48.980;8.138;2023-02-15T07:43:38;0.90;99.90
33994;DHT22;20673;48.980;8.138;2023-02-15T07:46:06;1.00;99.90
33994;DHT22;20673;48.980;8.138;2023-02-15T07:48:35;1.00;99.90
33994;DHT22;20673;48.980;8.138;2023-02-15T07:51:02;1.00;99.90
33994;DHT22;20673;48.980;8.138;2023-02-15T07:53:29;1.00;99.90
33994;DHT22;20673;48.980;8.138;2023-02-15T07:55:59;1.00;99.90
33994;DHT22;20673;48.980;8.138;2023-02-15T07:58:26;1.10;99.90
33994;DHT22;20673;48.980;8.138;2023-02-15T08:00:55;1.10;99.90
33994;DHT22;20673;48.980;8.138;2023-02-15T08:03:26;1.20;99.90
33994;DHT22;20673;48.980;8.138;2023-02-15T08:05:55;1.20;99.90
33994;DHT22;20673;48.980;8.138;2023-02-15T08:08:24;1.20;99.90
33994;DHT22;20673;48.980;8.138;2023-02-15T08:11:03;1.30;99.90
33994;DHT22;20673;48.980;8.138;2023-02-15T08:13:46;1.30;99.90
33994;DHT22;20673;48.980;8.138;2023-02-15T08:16:29;1.30;99.90
33994;DHT22;20673;48.980;8.138;2023-02-15T08:21:48;1.30;99.90
33994;DHT22;20673;48.980;8.138;2023-02-15T08:24:18;1.30;99.90
33994;DHT22;20673;48.980;8.138;2023-02-15T08:26:46;1.30;99.90
33994;DHT22;20673;48.980;8.138;2023-02-15T08:29:13;1.40;99.90
33994;DHT22;20673;48.980;8.138;2023-02-15T08:31:40;1.40;99.90
33994;DHT22;20673;48.980;8.138;2023-02-15T08:34:07;1.50;99.90
33994;DHT22;20673;48.980;8.138;2023-02-15T08:36:34;1.50;99.90
33994;DHT22;20673;48.980;8.138;2023-02-15T08:39:01;1.50;99.90
33994;DHT22;20673;48.980;8.138;2023-02-15T08:41:31;1.60;99.90
33994;DHT22;20673;48.980;8.138;2023-02-15T08:44:00;1.50;99.90
33994;DHT22;20673;48.980;8.138;2023-02-15T08:46:29;1.50;99.90
33994;DHT22;20673;48.980;8.138;2023-02-15T08:48:57;1.60;99.90
33994;DHT22;20673;48.980;8.138;2023-02-15T08:51:25;1.60;99.90
33994;DHT22;20673;48.980;8.138;2023-02-15T08:53:59;1.70;99.90
33994;DHT22;20673;48.980;8.138;2023-02-15T08:56:27;1.70;99.90
33994;DHT22;20673;48.980;8.138;2023-02-15T08:58:57;1.70;99.90
33994;DHT22;20673;48.980;8.138;2023-02-15T09:01:27;1.80;99.90
33994;DHT22;20673;48.980;8.138;2023-02-15T09:03:55;1.80;99.90
33994;DHT22;20673;48.980;8.138;2023-02-15T09:06:23;1.80;99.90
33994;DHT22;20673;48.980;8.138;2023-02-15T09:08:50;1.80;99.90
33994;DHT22;20673;48.980;8.138;2023-02-15T09:11:17;1.80;99.90
33994;DHT22;20673;48.980;8.138;2023-02-15T09:13:55;1.90;99.90
33994;DHT22;20673;48.980;8.138;2023-02-15T09:16:23;1.90;99.90
33994;DHT22;20673;48.980;8.138;2023-02-15T09:18:50;2.00;99.90
33994;DHT22;20673;48.980;8.138;2023-02-15T09:21:17;2.10;99.90
33994;DHT22;20673;48.980;8.138;2023-02-15T09:23:46;2.00;99.90
33994;DHT22;20673;48.980;8.138;2023-02-15T09:26:18;2.00;99.90
33994;DHT22;20673;48.980;8.138;2023-02-15T09:28:45;2.00;99.90
33994;DHT22;20673;48.980;8.138;2023-02-15T09:31:16;2.00;99.90
33994;DHT22;20673;48.980;8.138;2023-02-15T09:33:44;2.00;99.90
33994;DHT22;20673;48.980;8.138;2023-02-15T09:36:18;2.00;99.90
33994;DHT22;20673;48.980;8.138;2023-02-15T09:38:47;2.10;99.90
33994;DHT22;20673;48.980;8.138;2023-02-15T09:44:07;2.10;99.90
33994;DHT22;20673;48.980;8.138;2023-02-15T09:46:43;2.10;99.90
33994;DHT22;20673;48.980;8.138;2023-02-15T09:49:16;2.10;99.90
33994;DHT22;20673;48.980;8.138;2023-02-15T09:57:23;2.30;99.90
33994;DHT22;20673;48.980;8.138;2023-02-15T10:02:33;2.30;99.90
33994;DHT22;20673;48.980;8.138;2023-02-15T10:13:32;2.50;99.90
33994;DHT22;20673;48.980;8.138;2023-02-15T10:26:45;2.70;99.90
33994;DHT22;20673;48.980;8.138;2023-02-15T10:34:19;2.70;99.90
33994;DHT22;20673;48.980;8.138;2023-02-15T10:42:17;2.90;99.90
33994;DHT22;20673;48.980;8.138;2023-02-15T10:47:46;2.90;99.90
33994;DHT22;20673;48.980;8.138;2023-02-15T10:55:55;3.00;99.90
33994;DHT22;20673;48.980;8.138;2023-02-15T11:06:32;3.00;99.90
33994;DHT22;20673;48.980;8.138;2023-02-15T11:09:02;3.00;99.90
33994;DHT22;20673;48.980;8.138;2023-02-15T11:11:32;3.10;99.90
33994;DHT22;20673;48.980;8.138;2023-02-15T11:14:10;3.10;99.90
33994;DHT22;20673;48.980;8.138;2023-02-15T11:16:32;3.10;99.90
33994;DHT22;20673;48.980;8.138;2023-02-15T11:21:34;3.20;99.90
33994;DHT22;20673;48.980;8.138;2023-02-15T11:24:14;3.20;99.90
33994;DHT22;20673;48.980;8.138;2023-02-15T11:26:44;3.10;99.90
33994;DHT22;20673;48.980;8.138;2023-02-15T11:32:03;3.00;99.90
33994;DHT22;20673;48.980;8.138;2023-02-15T11:34:50;3.10;99.90
33994;DHT22;20673;48.980;8.138;2023-02-15T11:37:33;3.20;99.90
33994;DHT22;20673;48.980;8.138;2023-02-15T11:39:57;3.20;99.90
33994;DHT22;20673;48.980;8.138;2023-02-15T11:42:26;3.10;99.90
33994;DHT22;20673;48.980;8.138;2023-02-15T11:47:28;3.10;99.90
33994;DHT22;20673;48.980;8.138;2023-02-15T11:49:54;3.20;99.90
33994;DHT22;20673;48.980;8.138;2023-02-15T11:52:20;3.30;99.90
33994;DHT22;20673;48.980;8.138;2023-02-15T11:54:46;3.30;99.90
33994;DHT22;20673;48.980;8.138;2023-02-15T12:00:14;3.40;99.90
33994;DHT22;20673;48.980;8.138;2023-02-15T12:02:44;3.40;99.90
33994;DHT22;20673;48.980;8.138;2023-02-15T12:05:13;3.60;99.90
33994;DHT22;20673;48.980;8.138;2023-02-15T12:07:49;3.50;99.90
33994;DHT22;20673;48.980;8.138;2023-02-15T12:10:23;3.50;99.90
33994;DHT22;20673;48.980;8.138;2023-02-15T12:15:37;3.50;99.90
33994;DHT22;20673;48.980;8.138;2023-02-15T12:18:16;3.50;99.90
33994;DHT22;20673;48.980;8.138;2023-02-15T12:20:49;3.50;99.90
33994;DHT22;20673;48.980;8.138;2023-02-15T12:23:15;3.60;99.90
33994;DHT22;20673;48.980;8.138;2023-02-15T12:25:52;3.70;99.90
33994;DHT22;20673;48.980;8.138;2023-02-15T12:28:32;3.80;99.90
33994;DHT22;20673;48.980;8.138;2023-02-15T12:31:02;3.90;99.90
33994;DHT22;20673;48.980;8.138;2023-02-15T12:36:04;4.10;99.90
33994;DHT22;20673;48.980;8.138;2023-02-15T12:38:31;4.10;99.90
33994;DHT22;20673;48.980;8.138;2023-02-15T12:41:02;4.10;99.90
33994;DHT22;20673;48.980;8.138;2023-02-15T12:49:02;4.20;99.90
33994;DHT22;20673;48.980;8.138;2023-02-15T12:51:43;4.10;99.90
33994;DHT22;20673;48.980;8.138;2023-02-15T12:54:30;4.10;99.90
33994;DHT22;20673;48.980;8.138;2023-02-15T12:57:01;4.10;99.90
33994;DHT22;20673;48.980;8.138;2023-02-15T12:59:53;4.20;99.90
33994;DHT22;20673;48.980;8.138;2023-02-15T13:03:03;4.30;99.90
33994;DHT22;20673;48.980;8.138;2023-02-15T13:05:45;4.40;99.90
33994;DHT22;20673;48.980;8.138;2023-02-15T13:07:48;4.40;99.90
33994;DHT22;20673;48.980;8.138;2023-02-15T13:10:21;4.40;99.90
33994;DHT22;20673;48.980;8.138;2023-02-15T13:12:49;4.50;99.90
33994;DHT22;20673;48.980;8.138;2023-02-15T13:15:27;4.50;99.90
33994;DHT22;20673;48.980;8.138;2023-02-15T13:17:51;4.50;99.90
33994;DHT22;20673;48.980;8.138;2023-02-15T13:20:18;4.40;99.90
33994;DHT22;20673;48.980;8.138;2023-02-15T13:22:57;4.30;99.90
33994;DHT22;20673;48.980;8.138;2023-02-15T13:25:19;4.40;99.90
33994;DHT22;20673;48.980;8.138;2023-02-15T13:27:53;4.30;99.90
33994;DHT22;20673;48.980;8.138;2023-02-15T13:32:58;4.30;99.90
33994;DHT22;20673;48.980;8.138;2023-02-15T13:35:25;4.30;99.90
33994;DHT22;20673;48.980;8.138;2023-02-15T13:41:09;4.40;99.90
33994;DHT22;20673;48.980;8.138;2023-02-15T13:43:14;4.50;99.90
33994;DHT22;20673;48.980;8.138;2023-02-15T13:48:20;4.50;99.90
33994;DHT22;20673;48.980;8.138;2023-02-15T13:53:32;4.60;99.90
33994;DHT22;20673;48.980;8.138;2023-02-15T14:10:34;4.40;99.90
33994;DHT22;20673;48.980;8.138;2023-02-15T14:12:37;4.50;99.90
33994;DHT22;20673;48.980;8.138;2023-02-15T14:15:27;4.60;99.90
33994;DHT22;20673;48.980;8.138;2023-02-15T14:31:47;4.80;99.90
33994;DHT22;20673;48.980;8.138;2023-02-15T14:34:22;4.80;99.90
33994;DHT22;20673;48.980;8.138;2023-02-15T14:36:50;4.80;99.90
33994;DHT22;20673;48.980;8.138;2023-02-15T14:43:09;5.20;99.90
33994;DHT22;20673;48.980;8.138;2023-02-15T14:47:42;5.20;99.90
33994;DHT22;20673;48.980;8.138;2023-02-15T15:01:28;6.00;99.90
33994;DHT22;20673;48.980;8.138;2023-02-15T15:03:57;6.00;99.90
33994;DHT22;20673;48.980;8.138;2023-02-15T15:06:27;5.70;99.90
33994;DHT22;20673;48.980;8.138;2023-02-15T15:09:00;5.60;99.90
33994;DHT22;20673;48.980;8.138;2023-02-15T15:11:43;5.30;99.90
33994;DHT22;20673;48.980;8.138;2023-02-15T15:17:04;4.90;99.90
33994;DHT22;20673;48.980;8.138;2023-02-15T15:22:23;4.80;99.90
33994;DHT22;20673;48.980;8.138;2023-02-15T15:32:53;4.20;99.90
33994;DHT22;20673;48.980;8.138;2023-02-15T15:41:19;4.10;99.90
33994;DHT22;20673;48.980;8.138;2023-02-15T15:46:46;4.20;99.90
33994;DHT22;20673;48.980;8.138;2023-02-15T15:49:19;4.20;99.90
33994;DHT22;20673;48.980;8.138;2023-02-15T15:51:46;4.10;99.90
33994;DHT22;20673;48.980;8.138;2023-02-15T15:54:19;4.00;99.90
33994;DHT22;20673;48.980;8.138;2023-02-15T15:56:49;3.80;99.90
33994;DHT22;20673;48.980;8.138;2023-02-15T15:59:24;3.70;99.90
33994;DHT22;20673;48.980;8.138;2023-02-15T16:01:49;3.50;99.90
33994;DHT22;20673;48.980;8.138;2023-02-15T16:04:28;3.40;99.90
33994;DHT22;20673;48.980;8.138;2023-02-15T16:06:57;3.30;99.90
33994;DHT22;20673;48.980;8.138;2023-02-15T16:09:25;3.20;99.90
33994;DHT22;20673;48.980;8.138;2023-02-15T16:11:53;3.20;99.90
33994;DHT22;20673;48.980;8.138;2023-02-15T16:14:29;3.10;99.90
33994;DHT22;20673;48.980;8.138;2023-02-15T16:17:05;3.10;99.90
33994;DHT22;20673;48.980;8.138;2023-02-15T16:19:34;3.10;99.90
33994;DHT22;20673;48.980;8.138;2023-02-15T16:22:03;3.00;99.90
33994;DHT22;20673;48.980;8.138;2023-02-15T16:32:55;2.80;99.90
33994;DHT22;20673;48.980;8.138;2023-02-15T16:36:00;2.70;99.90
33994;DHT22;20673;48.980;8.138;2023-02-15T16:39:07;2.70;99.90
33994;DHT22;20673;48.980;8.138;2023-02-15T16:41:16;2.60;99.90
33994;DHT22;20673;48.980;8.138;2023-02-15T16:43:42;2.50;99.90
33994;DHT22;20673;48.980;8.138;2023-02-15T16:46:11;2.30;99.90
33994;DHT22;20673;48.980;8.138;2023-02-15T16:48:41;2.40;99.90
33994;DHT22;20673;48.980;8.138;2023-02-15T16:51:08;2.30;99.90
33994;DHT22;20673;48.980;8.138;2023-02-15T16:53:35;2.10;99.90
33994;DHT22;20673;48.980;8.138;2023-02-15T16:56:03;2.10;99.90
33994;DHT22;20673;48.980;8.138;2023-02-15T16:58:32;1.90;99.90
33994;DHT22;20673;48.980;8.138;2023-02-15T17:01:07;1.90;99.90
33994;DHT22;20673;48.980;8.138;2023-02-15T17:03:35;1.80;99.90
33994;DHT22;20673;48.980;8.138;2023-02-15T17:06:02;1.70;99.90
33994;DHT22;20673;48.980;8.138;2023-02-15T17:13:28;1.40;99.90
33994;DHT22;20673;48.980;8.138;2023-02-15T17:18:29;1.30;99.90
33994;DHT22;20673;48.980;8.138;2023-02-15T17:21:08;1.30;99.90
33994;DHT22;20673;48.980;8.138;2023-02-15T17:23:30;1.20;99.90
33994;DHT22;20673;48.980;8.138;2023-02-15T17:26:14;1.20;99.90
33994;DHT22;20673;48.980;8.138;2023-02-15T17:28:49;1.10;99.90
33994;DHT22;20673;48.980;8.138;2023-02-15T17:31:18;1.10;99.90
33994;DHT22;20673;48.980;8.138;2023-02-15T17:33:46;1.10;99.90
33994;DHT22;20673;48.980;8.138;2023-02-15T17:36:16;1.00;99.90
33994;DHT22;20673;48.980;8.138;2023-02-15T17:39:34;1.00;99.90
33994;DHT22;20673;48.980;8.138;2023-02-15T17:41:27;0.90;99.90
33994;DHT22;20673;48.980;8.138;2023-02-15T17:43:54;0.80;99.90
33994;DHT22;20673;48.980;8.138;2023-02-15T17:46:20;0.80;99.90
33994;DHT22;20673;48.980;8.138;2023-02-15T17:48:48;0.80;99.90
33994;DHT22;20673;48.980;8.138;2023-02-15T17:51:19;0.70;99.90
33994;DHT22;20673;48.980;8.138;2023-02-15T17:53:46;0.60;99.90
33994;DHT22;20673;48.980;8.138;2023-02-15T17:56:15;0.50;99.90
33994;DHT22;20673;48.980;8.138;2023-02-15T17:58:41;0.50;99.90
33994;DHT22;20673;48.980;8.138;2023-02-15T18:01:09;0.60;99.90
33994;DHT22;20673;48.980;8.138;2023-02-15T18:03:58;0.50;99.90
33994;DHT22;20673;48.980;8.138;2023-02-15T18:06:42;0.40;99.90
33994;DHT22;20673;48.980;8.138;2023-02-15T18:09:26;0.30;99.90
33994;DHT22;20673;48.980;8.138;2023-02-15T18:12:21;0.30;99.90
33994;DHT22;20673;48.980;8.138;2023-02-15T18:14:49;0.20;99.90
33994;DHT22;20673;48.980;8.138;2023-02-15T18:17:17;0.20;99.90
33994;DHT22;20673;48.980;8.138;2023-02-15T18:19:43;0.10;99.90
33994;DHT22;20673;48.980;8.138;2023-02-15T18:22:11;0.10;99.90
33994;DHT22;20673;48.980;8.138;2023-02-15T18:24:38;0.10;99.90
33994;DHT22;20673;48.980;8.138;2023-02-15T18:27:05;0.00;99.90
33994;DHT22;20673;48.980;8.138;2023-02-15T18:29:31;0.00;99.90
33994;DHT22;20673;48.980;8.138;2023-02-15T18:31:58;0.00;99.90
33994;DHT22;20673;48.980;8.138;2023-02-15T18:36:58;0.20;99.90
33994;DHT22;20673;48.980;8.138;2023-02-15T18:39:39;0.20;99.90
33994;DHT22;20673;48.980;8.138;2023-02-15T18:42:20;0.10;99.90
33994;DHT22;20673;48.980;8.138;2023-02-15T18:44:49;0.00;99.90
33994;DHT22;20673;48.980;8.138;2023-02-15T18:47:18;0.00;99.90
33994;DHT22;20673;48.980;8.138;2023-02-15T18:49:44;0.00;99.90
33994;DHT22;20673;48.980;8.138;2023-02-15T18:52:13;0.00;99.90
33994;DHT22;20673;48.980;8.138;2023-02-15T18:54:40;0.10;99.90
33994;DHT22;20673;48.980;8.138;2023-02-15T18:57:08;0.10;99.90
33994;DHT22;20673;48.980;8.138;2023-02-15T18:59:36;0.20;99.90
33994;DHT22;20673;48.980;8.138;2023-02-15T19:02:02;0.20;99.90
33994;DHT22;20673;48.980;8.138;2023-02-15T19:04:28;0.30;99.90
33994;DHT22;20673;48.980;8.138;2023-02-15T19:06:54;0.30;99.90
33994;DHT22;20673;48.980;8.138;2023-02-15T19:09:21;0.40;99.90
33994;DHT22;20673;48.980;8.138;2023-02-15T19:11:49;0.40;99.90
33994;DHT22;20673;48.980;8.138;2023-02-15T19:14:24;0.50;99.90
33994;DHT22;20673;48.980;8.138;2023-02-15T19:16:53;0.60;99.90
33994;DHT22;20673;48.980;8.138;2023-02-15T19:19:19;0.60;99.90
33994;DHT22;20673;48.980;8.138;2023-02-15T19:21:45;0.70;99.90
33994;DHT22;20673;48.980;8.138;2023-02-15T19:24:13;0.70;99.90
33994;DHT22;20673;48.980;8.138;2023-02-15T19:26:45;0.80;99.90
33994;DHT22;20673;48.980;8.138;2023-02-15T19:29:12;0.80;99.90
33994;DHT22;20673;48.980;8.138;2023-02-15T19:31:40;0.90;99.90
33994;DHT22;20673;48.980;8.138;2023-02-15T19:34:11;0.90;99.90
33994;DHT22;20673;48.980;8.138;2023-02-15T19:36:38;1.00;99.90
33994;DHT22;20673;48.980;8.138;2023-02-15T19:39:04;1.00;99.90
33994;DHT22;20673;48.980;8.138;2023-02-15T19:41:31;1.00;99.90